createdAt,value
2023-04-23T00:01:58.438Z,13.04
2023-04-23T00:04:01.004Z,12.97
2023-04-23T00:06:08.050Z,12.97
2023-04-23T00:08:10.966Z,12.86
2023-04-23T00:10:13.219Z,12.77
2023-04-23T00:12:15.031Z,12.73
2023-04-23T00:14:16.759Z,12.68
2023-04-23T00:16:19.729Z,12.60
2023-04-23T00:18:21.248Z,12.52
2023-04-23T00:20:23.016Z,12.48
2023-04-23T00:22:24.503Z,12.48
2023-04-23T00:24:25.996Z,12.45
2023-04-23T00:26:27.489Z,12.45
2023-04-23T00:28:28.954Z,12.40
2023-04-23T00:30:30.795Z,12.37
2023-04-23T00:32:32.425Z,12.29
2023-04-23T00:34:33.938Z,12.29
2023-04-23T00:36:35.508Z,12.22
2023-04-23T00:38:37.430Z,12.17
2023-04-23T00:40:38.993Z,12.15
2023-04-23T00:42:40.756Z,12.10
2023-04-23T00:44:42.811Z,12.10
2023-04-23T00:46:46.263Z,12.07
2023-04-23T00:48:48.093Z,12.03
2023-04-23T00:50:49.553Z,11.98
2023-04-23T00:52:51.073Z,11.94
2023-04-23T00:54:52.605Z,11.92
2023-04-23T00:56:55.514Z,11.87
2023-04-23T00:58:57.427Z,11.83
2023-04-23T01:00:59.227Z,11.79
2023-04-23T01:03:01.484Z,11.74
2023-04-23T01:05:05.103Z,11.73
2023-04-23T01:07:07.582Z,11.70
2023-04-23T01:09:12.448Z,11.74
2023-04-23T01:11:15.670Z,11.75
2023-04-23T01:13:17.250Z,11.70
2023-04-23T01:15:18.749Z,11.66
2023-04-23T01:17:20.368Z,11.67
2023-04-23T01:19:21.874Z,11.61
2023-04-23T01:21:24.072Z,11.58
2023-04-23T01:23:27.163Z,11.56
2023-04-23T01:25:28.728Z,11.54
2023-04-23T01:27:30.880Z,11.49
2023-04-23T01:29:32.988Z,11.46
2023-04-23T01:31:34.928Z,11.42
2023-04-23T01:33:37.171Z,11.37
2023-04-23T01:35:40.765Z,11.37
2023-04-23T01:37:43.381Z,11.38
2023-04-23T01:39:44.949Z,11.39
2023-04-23T01:41:48.065Z,11.35
2023-04-23T01:43:49.787Z,11.33
2023-04-23T01:45:52.792Z,11.33
2023-04-23T01:47:54.454Z,11.34
2023-04-23T01:49:56.037Z,11.30
2023-04-23T01:51:57.602Z,11.26
2023-04-23T01:53:59.153Z,11.21
2023-04-23T01:56:01.472Z,11.19
2023-04-23T01:58:03.235Z,11.15
2023-04-23T02:00:12.774Z,11.10
2023-04-23T02:02:15.222Z,11.07
2023-04-23T02:04:17.830Z,11.05
2023-04-23T02:06:19.512Z,11.01
2023-04-23T02:08:21.302Z,10.99
2023-04-23T02:10:22.773Z,10.99
2023-04-23T02:12:25.033Z,10.98
2023-04-23T02:14:26.533Z,10.98
2023-04-23T02:16:28.628Z,11.00
2023-04-23T02:18:30.229Z,11.00
2023-04-23T02:20:31.873Z,10.95
2023-04-23T02:22:33.588Z,10.92
2023-04-23T02:24:35.244Z,10.87
2023-04-23T02:26:36.794Z,10.84
2023-04-23T02:28:38.857Z,10.77
2023-04-23T02:30:45.313Z,10.71
2023-04-23T02:32:46.785Z,10.67
2023-04-23T02:34:48.264Z,10.65
2023-04-23T02:36:49.733Z,10.59
2023-04-23T02:38:51.343Z,10.56
2023-04-23T02:40:52.882Z,10.55
2023-04-23T02:42:54.652Z,10.52
2023-04-23T02:44:56.181Z,10.49
2023-04-23T02:46:57.711Z,10.46
2023-04-23T02:48:59.362Z,10.41
2023-04-23T02:51:00.828Z,10.40
2023-04-23T02:53:02.285Z,10.41
2023-04-23T02:55:04.294Z,10.36
2023-04-23T02:57:06.186Z,10.34
2023-04-23T02:59:09.140Z,10.33
2023-04-23T03:01:10.744Z,10.34
2023-04-23T03:03:12.877Z,10.30
2023-04-23T03:05:14.555Z,10.31
2023-04-23T03:07:17.596Z,10.29
2023-04-23T03:09:19.134Z,10.28
2023-04-23T03:11:21.169Z,10.32
2023-04-23T03:13:22.668Z,10.32
2023-04-23T03:15:24.387Z,10.34
2023-04-23T03:17:25.890Z,10.33
2023-04-23T03:19:27.370Z,10.30
2023-04-23T03:21:28.901Z,10.26
2023-04-23T03:23:30.404Z,10.23
2023-04-23T03:25:33.211Z,10.26
2023-04-23T03:27:34.748Z,10.26
2023-04-23T03:29:36.244Z,10.25
2023-04-23T03:31:37.741Z,10.18
2023-04-23T03:33:39.225Z,10.11
2023-04-23T03:35:40.909Z,10.08
2023-04-23T03:37:42.720Z,10.07
2023-04-23T03:39:44.267Z,10.05
2023-04-23T03:41:46.065Z,10.06
2023-04-23T03:43:47.558Z,10.08
2023-04-23T03:45:49.016Z,10.11
2023-04-23T03:47:50.519Z,10.13
2023-04-23T03:49:51.971Z,10.14
2023-04-23T03:51:53.448Z,10.07
2023-04-23T03:53:54.887Z,10.05
2023-04-23T03:55:56.701Z,10.01
2023-04-23T03:58:01.597Z,10.04
2023-04-23T04:00:05.122Z,10.04
2023-04-23T04:02:06.724Z,10.02
2023-04-23T04:04:08.486Z,9.98
2023-04-23T04:06:10.166Z,9.96
2023-04-23T04:08:11.613Z,9.90
2023-04-23T04:10:13.072Z,9.85
2023-04-23T04:12:15.067Z,9.87
2023-04-23T04:14:16.534Z,9.85
2023-04-23T04:16:18.072Z,9.86
2023-04-23T04:18:19.834Z,9.87
2023-04-23T04:20:21.381Z,9.92
2023-04-23T04:22:22.835Z,9.88
2023-04-23T04:24:26.255Z,9.87
2023-04-23T04:26:28.852Z,9.82
2023-04-23T04:28:30.380Z,9.76
2023-04-23T04:30:31.836Z,9.79
2023-04-23T04:32:33.354Z,9.79
2023-04-23T04:34:36.152Z,9.77
2023-04-23T04:36:37.693Z,9.76
2023-04-23T04:38:39.694Z,9.73
2023-04-23T04:40:41.206Z,9.71
2023-04-23T04:42:42.733Z,9.70
2023-04-23T04:44:44.285Z,9.71
2023-04-23T04:46:46.124Z,9.71
2023-04-23T04:48:48.166Z,9.71
2023-04-23T04:50:49.641Z,9.75
2023-04-23T04:52:51.160Z,9.77
2023-04-23T04:54:52.676Z,9.78
2023-04-23T04:56:54.135Z,9.80
2023-04-23T04:58:55.601Z,9.80
2023-04-23T05:00:59.593Z,9.80
2023-04-23T05:03:01.730Z,9.77
2023-04-23T05:05:03.715Z,9.76
2023-04-23T05:07:05.204Z,9.79
2023-04-23T05:09:06.667Z,9.84
2023-04-23T05:11:08.213Z,9.87
2023-04-23T05:13:10.019Z,9.89
2023-04-23T05:15:13.625Z,9.93
2023-04-23T05:17:15.078Z,9.93
2023-04-23T05:19:16.602Z,9.99
2023-04-23T05:21:19.399Z,9.99
2023-04-23T05:23:20.976Z,10.00
2023-04-23T05:25:22.435Z,9.95
2023-04-23T05:27:23.957Z,9.96
2023-04-23T05:29:25.515Z,9.91
2023-04-23T05:31:29.236Z,9.88
2023-04-23T05:33:36.444Z,9.87
2023-04-23T05:35:48.133Z,9.87
2023-04-23T05:37:49.579Z,9.80
2023-04-23T05:39:51.224Z,9.77
2023-04-23T05:41:53.147Z,9.80
2023-04-23T05:43:54.592Z,9.88
2023-04-23T05:45:56.180Z,9.89
2023-04-23T05:47:57.728Z,9.92
2023-04-23T05:49:59.478Z,9.92
2023-04-23T05:52:02.968Z,9.90
2023-04-23T05:54:04.631Z,9.92
2023-04-23T05:56:06.091Z,9.93
2023-04-23T05:58:07.661Z,9.91
2023-04-23T06:00:12.323Z,9.89
2023-04-23T06:02:13.975Z,9.86
2023-04-23T06:04:16.567Z,9.87
2023-04-23T06:06:18.189Z,9.94
2023-04-23T06:08:20.357Z,9.97
2023-04-23T06:10:21.901Z,9.98
2023-04-23T06:12:23.380Z,10.00
2023-04-23T06:14:24.826Z,10.03
2023-04-23T06:16:26.394Z,10.00
2023-04-23T06:18:28.334Z,10.04
2023-04-23T06:20:30.390Z,10.04
2023-04-23T06:22:32.709Z,10.10
2023-04-23T06:24:34.225Z,10.10
2023-04-23T06:26:35.685Z,10.05
2023-04-23T06:28:37.153Z,10.04
2023-04-23T06:30:38.649Z,10.02
2023-04-23T06:32:40.317Z,10.03
2023-04-23T06:34:53.274Z,10.04
2023-04-23T06:36:59.028Z,10.05
2023-04-23T06:39:00.571Z,10.07
2023-04-23T06:41:02.788Z,10.06
2023-04-23T06:43:05.339Z,10.10
2023-04-23T06:45:07.354Z,10.13
2023-04-23T06:47:08.951Z,10.20
2023-04-23T06:49:10.591Z,10.25
2023-04-23T06:51:12.436Z,10.28
2023-04-23T06:53:14.194Z,10.33
2023-04-23T06:55:15.727Z,10.32
2023-04-23T06:57:17.467Z,10.29
2023-04-23T06:59:19.593Z,10.30
2023-04-23T07:01:21.250Z,10.32
2023-04-23T07:03:22.887Z,10.28
2023-04-23T07:05:24.475Z,10.27
2023-04-23T07:07:26.086Z,10.27
2023-04-23T07:09:28.697Z,10.28
2023-04-23T07:11:31.785Z,10.32
2023-04-23T07:13:33.330Z,10.39
2023-04-23T07:15:34.835Z,10.48
2023-04-23T07:17:36.415Z,10.59
2023-04-23T07:19:38.254Z,10.62
2023-04-23T07:21:40.239Z,10.66
2023-04-23T07:23:41.787Z,10.69
2023-04-23T07:25:43.498Z,10.77
2023-04-23T07:27:44.966Z,10.82
2023-04-23T07:29:46.548Z,10.90
2023-04-23T07:31:48.434Z,10.98
2023-04-23T07:33:50.039Z,11.05
2023-04-23T07:35:51.518Z,11.16
2023-04-23T07:37:55.968Z,11.23
2023-04-23T07:39:57.518Z,11.29
2023-04-23T07:41:59.683Z,11.33
2023-04-23T07:44:01.531Z,11.37
2023-04-23T07:46:03.156Z,11.43
2023-04-23T07:48:04.939Z,11.47
2023-04-23T07:50:07.348Z,11.54
2023-04-23T07:52:09.101Z,11.64
2023-04-23T07:54:11.577Z,11.74
2023-04-23T07:56:13.136Z,11.79
2023-04-23T07:58:14.585Z,11.84
2023-04-23T08:00:16.273Z,11.94
2023-04-23T08:02:18.570Z,12.05
2023-04-23T08:04:20.480Z,12.13
2023-04-23T08:06:23.529Z,12.18
2023-04-23T08:08:25.003Z,12.23
2023-04-23T08:10:26.745Z,12.29
2023-04-23T08:12:28.820Z,12.36
2023-04-23T08:14:30.343Z,12.50
2023-04-23T08:16:31.998Z,12.56
2023-04-23T08:18:33.825Z,12.64
2023-04-23T08:20:35.379Z,12.70
2023-04-23T08:22:36.907Z,12.76
2023-04-23T08:24:38.350Z,12.78
2023-04-23T08:26:39.810Z,12.72
2023-04-23T08:28:41.320Z,12.73
2023-04-23T08:30:42.826Z,12.78
2023-04-23T08:32:44.271Z,12.86
2023-04-23T08:34:45.727Z,12.93
2023-04-23T08:36:48.821Z,12.97
2023-04-23T08:38:50.293Z,13.03
2023-04-23T08:40:58.439Z,13.12
2023-04-23T08:43:09.516Z,13.18
2023-04-23T08:45:12.579Z,13.24
2023-04-23T08:47:18.262Z,13.30
2023-04-23T08:49:19.841Z,13.34
2023-04-23T08:51:26.013Z,13.31
2023-04-23T08:53:32.649Z,13.27
2023-04-23T08:55:35.721Z,13.33
2023-04-23T08:57:40.045Z,13.38
2023-04-23T08:59:42.072Z,13.41
2023-04-23T09:01:43.947Z,13.45
2023-04-23T09:03:46.549Z,13.54
2023-04-23T09:05:48.740Z,13.67
2023-04-23T09:07:50.255Z,13.76
2023-04-23T09:09:51.762Z,13.86
2023-04-23T09:11:54.855Z,13.91
2023-04-23T09:13:56.880Z,13.98
2023-04-23T09:15:58.418Z,14.05
2023-04-23T09:18:00.906Z,14.11
2023-04-23T09:20:03.227Z,14.03
2023-04-23T09:22:04.689Z,14.05
2023-04-23T09:24:06.338Z,14.13
2023-04-23T09:26:08.136Z,14.17
2023-04-23T09:28:10.962Z,14.25
2023-04-23T09:30:12.870Z,14.31
2023-04-23T09:32:14.366Z,14.40
2023-04-23T09:34:18.255Z,14.52
2023-04-23T09:36:23.962Z,14.64
2023-04-23T09:38:25.681Z,14.74
2023-04-23T09:40:27.322Z,14.81
2023-04-23T09:42:28.918Z,14.86
2023-04-23T09:44:32.698Z,14.98
2023-04-23T09:46:34.898Z,15.04
2023-04-23T09:48:43.230Z,15.13
2023-04-23T09:50:44.841Z,15.19
2023-04-23T09:52:55.268Z,15.29
2023-04-23T09:54:59.307Z,15.45
2023-04-23T09:57:02.768Z,15.51
2023-04-23T09:59:23.003Z,15.49
2023-04-23T10:01:30.910Z,15.59
2023-04-23T10:03:32.822Z,15.69
2023-04-23T10:05:59.784Z,15.78
2023-04-23T10:08:02.731Z,15.94
2023-04-23T10:10:04.667Z,16.11
2023-04-23T10:12:09.786Z,16.20
2023-04-23T10:14:21.870Z,16.31
2023-04-23T10:16:28.597Z,16.45
2023-04-23T10:18:38.601Z,16.54
2023-04-23T10:20:41.699Z,16.63
2023-04-23T10:22:45.495Z,16.63
2023-04-23T10:24:52.486Z,16.62
2023-04-23T10:26:58.433Z,16.59
2023-04-23T10:29:01.398Z,16.54
2023-04-23T10:31:04.065Z,16.60
2023-04-23T10:33:15.626Z,16.79
2023-04-23T10:35:20.655Z,17.03
2023-04-23T10:37:22.533Z,17.24
2023-04-23T10:39:30.056Z,17.33
2023-04-23T10:41:37.797Z,17.40
2023-04-23T10:43:39.328Z,17.53
2023-04-23T10:45:40.837Z,17.78
2023-04-23T10:47:44.049Z,18.07
2023-04-23T10:49:45.658Z,18.01
2023-04-23T10:53:54.787Z,18.32
2023-04-23T10:56:06.600Z,18.82
2023-04-23T10:58:08.468Z,19.13
2023-04-23T11:00:10.909Z,19.12
2023-04-23T11:02:13.040Z,19.21
2023-04-23T11:04:26.209Z,19.44
2023-04-23T11:06:49.361Z,19.76
2023-04-23T11:08:54.774Z,19.73
2023-04-23T11:10:59.647Z,19.82
2023-04-23T11:13:25.930Z,19.75
2023-04-23T11:15:27.446Z,19.92
2023-04-23T11:17:31.681Z,19.96
2023-04-23T11:19:37.425Z,19.98
2023-04-23T11:22:00.219Z,19.80
2023-04-23T11:24:07.742Z,19.87
2023-04-23T11:26:09.580Z,20.41
2023-04-23T11:28:11.287Z,20.93
2023-04-23T11:30:16.732Z,21.05
2023-04-23T11:32:18.640Z,20.95
2023-04-23T11:34:20.480Z,21.27
2023-04-23T11:36:23.186Z,21.38
2023-04-23T11:38:33.580Z,20.84
2023-04-23T11:40:35.148Z,20.60
2023-04-23T11:42:47.302Z,20.38
2023-04-23T11:44:48.853Z,20.00
2023-04-23T11:46:50.866Z,19.67
2023-04-23T11:48:52.675Z,19.59
2023-04-23T11:50:54.388Z,19.51
2023-04-23T11:52:56.341Z,19.45
2023-04-23T11:55:03.047Z,19.53
2023-04-23T11:57:05.920Z,19.46
2023-04-23T11:59:07.808Z,19.55
2023-04-23T12:01:12.611Z,19.95
2023-04-23T12:03:16.320Z,20.43
2023-04-23T12:05:29.107Z,20.94
2023-04-23T12:07:34.524Z,21.08
2023-04-23T12:09:36.683Z,20.84
2023-04-23T12:11:39.280Z,20.92
2023-04-23T12:13:41.781Z,20.63
2023-04-23T12:15:50.337Z,20.21
2023-04-23T12:18:08.157Z,20.21
2023-04-23T12:20:13.162Z,20.68
2023-04-23T12:22:14.672Z,21.12
2023-04-23T12:24:16.498Z,21.39
2023-04-23T12:26:19.841Z,21.67
2023-04-23T12:28:24.709Z,21.79
2023-04-23T12:30:33.374Z,21.87
2023-04-23T12:32:35.447Z,21.85
2023-04-23T12:34:37.218Z,21.85
2023-04-23T12:36:40.907Z,21.72
2023-04-23T12:38:42.747Z,21.73
2023-04-23T12:40:44.245Z,21.50
2023-04-23T12:42:45.717Z,21.12
2023-04-23T12:44:47.643Z,20.69
2023-04-23T12:47:00.463Z,20.39
2023-04-23T12:49:02.035Z,20.20
2023-04-23T12:51:04.827Z,20.00
2023-04-23T12:53:06.855Z,19.94
2023-04-23T12:55:08.926Z,20.06
2023-04-23T12:57:17.403Z,20.27
2023-04-23T12:59:19.791Z,20.53
2023-04-23T13:01:21.474Z,20.64
2023-04-23T13:03:24.156Z,20.71
2023-04-23T13:05:26.701Z,20.76
2023-04-23T13:07:28.267Z,20.83
2023-04-23T13:09:30.210Z,20.73
2023-04-23T13:11:32.734Z,20.49
2023-04-23T13:13:34.174Z,20.34
2023-04-23T13:15:35.657Z,20.25
2023-04-23T13:17:37.123Z,20.43
2023-04-23T13:19:39.793Z,20.70
2023-04-23T13:21:41.613Z,21.00
2023-04-23T13:23:43.086Z,21.39
2023-04-23T13:25:44.629Z,21.47
2023-04-23T13:27:46.203Z,21.35
2023-04-23T13:29:47.697Z,21.08
2023-04-23T13:31:49.263Z,20.75
2023-04-23T13:33:50.749Z,20.56
2023-04-23T13:35:52.775Z,20.40
2023-04-23T13:37:54.452Z,20.34
2023-04-23T13:39:55.985Z,20.49
2023-04-23T13:42:08.852Z,20.63
2023-04-23T13:44:13.352Z,20.70
2023-04-23T13:46:14.876Z,20.55
2023-04-23T13:48:16.560Z,20.34
2023-04-23T13:50:18.244Z,20.27
2023-04-23T13:52:19.809Z,20.13
2023-04-23T13:54:21.349Z,20.00
2023-04-23T13:56:23.021Z,19.95
2023-04-23T13:58:24.543Z,19.99
2023-04-23T14:00:28.299Z,20.16
2023-04-23T14:02:29.911Z,20.19
2023-04-23T14:04:31.562Z,20.14
2023-04-23T14:06:33.157Z,20.27
2023-04-23T14:08:36.750Z,20.32
2023-04-23T14:10:39.781Z,20.37
2023-04-23T14:12:42.259Z,20.55
2023-04-23T14:14:43.720Z,20.70
2023-04-23T14:16:45.223Z,20.59
2023-04-23T14:18:46.721Z,20.37
2023-04-23T14:20:48.473Z,20.33
2023-04-23T14:22:55.321Z,20.15
2023-04-23T14:25:02.694Z,20.04
2023-04-23T14:27:05.781Z,19.99
2023-04-23T14:31:20.709Z,20.00
2023-04-23T14:33:22.541Z,19.95
2023-04-23T14:35:36.045Z,19.90
2023-04-23T14:37:45.304Z,19.76
2023-04-23T14:39:46.968Z,19.69
2023-04-23T14:41:48.492Z,19.64
2023-04-23T14:43:49.957Z,19.52
2023-04-23T14:45:52.024Z,19.26
2023-04-23T14:47:53.537Z,19.03
2023-04-23T14:49:57.465Z,18.91
2023-04-23T14:51:59.039Z,18.80
2023-04-23T14:54:00.514Z,18.75
2023-04-23T14:56:02.169Z,18.52
2023-04-23T14:58:03.711Z,17.95
2023-04-23T15:00:08.136Z,17.30
2023-04-23T15:02:12.108Z,16.64
2023-04-23T15:04:13.931Z,16.16
2023-04-23T15:06:15.558Z,15.83
2023-04-23T15:08:17.073Z,15.55
2023-04-23T15:10:20.382Z,15.37
2023-04-23T15:12:41.462Z,15.38
2023-04-23T15:14:43.806Z,15.54
2023-04-23T15:16:49.238Z,15.90
2023-04-23T15:18:51.412Z,16.15
2023-04-23T15:20:52.869Z,16.33
2023-04-23T15:22:54.356Z,16.57
2023-04-23T15:24:56.346Z,16.78
2023-04-23T15:26:59.274Z,16.95
2023-04-23T15:29:00.925Z,17.09
2023-04-23T15:31:02.476Z,17.15
2023-04-23T15:33:04.074Z,17.22
2023-04-23T15:35:05.953Z,17.28
2023-04-23T15:37:07.425Z,17.30
2023-04-23T15:39:09.304Z,17.33
2023-04-23T15:41:12.356Z,17.33
2023-04-23T15:43:14.069Z,17.34
2023-04-23T15:45:16.746Z,17.35
2023-04-23T15:47:19.396Z,17.38
2023-04-23T15:49:22.463Z,17.38
2023-04-23T15:51:23.942Z,17.30
2023-04-23T15:53:27.570Z,17.23
2023-04-23T15:55:29.818Z,17.24
2023-04-23T15:57:31.831Z,17.25
2023-04-23T15:59:33.380Z,17.22
2023-04-23T16:01:36.019Z,17.23
2023-04-23T16:03:37.878Z,17.23
2023-04-23T16:05:39.580Z,17.24
2023-04-23T16:07:41.327Z,17.30
2023-04-23T16:09:43.158Z,17.33
2023-04-23T16:11:44.944Z,17.38
2023-04-23T16:13:46.526Z,17.47
2023-04-23T16:15:48.076Z,17.51
2023-04-23T16:17:50.145Z,17.51
2023-04-23T16:19:51.708Z,17.53
2023-04-23T16:21:53.185Z,17.53
2023-04-23T16:23:54.759Z,17.49
2023-04-23T16:25:57.219Z,17.42
2023-04-23T16:27:58.911Z,17.38
2023-04-23T16:30:00.693Z,17.34
2023-04-23T16:32:02.196Z,17.28
2023-04-23T16:34:03.690Z,17.23
2023-04-23T16:36:05.888Z,17.18
2023-04-23T16:38:10.938Z,17.13
2023-04-23T16:40:15.178Z,17.07
2023-04-23T16:42:16.676Z,17.00
2023-04-23T16:44:19.140Z,16.94
2023-04-23T16:46:21.085Z,16.86
2023-04-23T16:48:22.690Z,16.75
2023-04-23T16:50:24.170Z,16.66
2023-04-23T16:52:26.339Z,16.52
2023-04-23T16:54:27.892Z,16.37
2023-04-23T16:56:29.691Z,15.95
2023-04-23T16:58:31.932Z,15.55
2023-04-23T17:00:33.415Z,15.16
2023-04-23T17:02:35.132Z,14.74
2023-04-23T17:04:37.525Z,14.41
2023-04-23T17:06:39.220Z,14.05
2023-04-23T17:08:40.777Z,13.78
2023-04-23T17:10:42.263Z,13.55
2023-04-23T17:12:43.767Z,13.35
2023-04-23T17:14:45.251Z,13.20
2023-04-23T17:16:46.715Z,13.16
2023-04-23T17:18:48.594Z,13.38
2023-04-23T17:20:50.177Z,13.59
2023-04-23T17:22:51.685Z,13.74
2023-04-23T17:24:53.231Z,13.84
2023-04-23T17:26:54.765Z,13.88
2023-04-23T17:28:56.687Z,13.94
2023-04-23T17:30:58.327Z,13.98
2023-04-23T17:33:00.019Z,14.02
2023-04-23T17:35:09.271Z,14.06
2023-04-23T17:37:12.317Z,14.09
2023-04-23T17:39:13.848Z,14.12
2023-04-23T17:41:17.537Z,14.14
2023-04-23T17:43:19.690Z,14.14
2023-04-23T17:45:21.209Z,14.13
2023-04-23T17:47:22.807Z,14.11
2023-04-23T17:49:24.482Z,14.09
2023-04-23T17:51:25.967Z,14.09
2023-04-23T17:53:27.508Z,14.08
2023-04-23T17:55:29.009Z,14.07
2023-04-23T17:57:30.843Z,14.07
2023-04-23T17:59:32.359Z,14.03
2023-04-23T18:01:34.543Z,14.00
2023-04-23T18:03:36.505Z,13.96
2023-04-23T18:05:38.173Z,13.92
2023-04-23T18:07:41.005Z,13.87
2023-04-23T18:09:42.503Z,13.82
2023-04-23T18:11:44.087Z,13.80
2023-04-23T18:13:45.769Z,13.77
2023-04-23T18:15:49.979Z,13.73
2023-04-23T18:17:54.526Z,13.69
2023-04-23T18:19:57.322Z,13.66
2023-04-23T18:22:02.085Z,13.54
2023-04-23T18:24:04.100Z,13.21
2023-04-23T18:26:05.812Z,12.94
2023-04-23T18:28:07.282Z,12.75
2023-04-23T18:30:09.236Z,12.62
2023-04-23T18:32:14.050Z,12.55
2023-04-23T18:34:22.656Z,12.66
2023-04-23T18:36:29.488Z,12.81
2023-04-23T18:38:38.399Z,12.99
2023-04-23T18:40:39.932Z,13.05
2023-04-23T18:42:41.449Z,13.09
2023-04-23T18:44:43.148Z,13.12
2023-04-23T18:46:44.921Z,13.15
2023-04-23T18:48:52.706Z,13.16
2023-04-23T18:50:57.801Z,13.13
2023-04-23T18:52:59.347Z,13.05
2023-04-23T18:55:00.800Z,13.04
2023-04-23T18:57:02.284Z,13.05
2023-04-23T18:59:03.763Z,13.05
2023-04-23T19:01:05.895Z,13.06
2023-04-23T19:03:19.614Z,13.01
2023-04-23T19:05:27.217Z,12.82
2023-04-23T19:07:28.721Z,12.78
2023-04-23T19:09:30.592Z,12.83
2023-04-23T19:11:35.088Z,12.88
2023-04-23T19:13:36.679Z,12.89
2023-04-23T19:15:38.389Z,12.93
2023-04-23T19:17:40.113Z,12.92
2023-04-23T19:19:41.893Z,12.94
2023-04-23T19:21:43.584Z,12.96
2023-04-23T19:23:45.215Z,12.98
2023-04-23T19:25:47.708Z,12.96
2023-04-23T19:27:49.183Z,12.96
2023-04-23T19:29:52.484Z,12.93
2023-04-23T19:31:54.066Z,12.88
2023-04-23T19:33:56.500Z,12.87
2023-04-23T19:35:58.051Z,12.87
2023-04-23T19:37:59.525Z,12.89
2023-04-23T19:40:01.013Z,12.92
2023-04-23T19:42:02.762Z,12.92
2023-04-23T19:44:04.314Z,12.90
2023-04-23T19:46:05.807Z,12.89
2023-04-23T19:48:08.263Z,12.89
2023-04-23T19:50:10.564Z,12.88
2023-04-23T19:52:17.641Z,12.87
2023-04-23T19:54:19.118Z,12.84
2023-04-23T19:56:22.880Z,12.81
2023-04-23T19:58:24.413Z,12.75
2023-04-23T20:00:27.314Z,12.63
2023-04-23T20:02:28.916Z,12.50
2023-04-23T20:04:30.602Z,12.38
2023-04-23T20:06:33.000Z,12.28
2023-04-23T20:08:42.452Z,12.25
2023-04-23T20:10:45.030Z,12.25
2023-04-23T20:12:46.553Z,12.25
2023-04-23T20:14:48.073Z,12.27
2023-04-23T20:16:49.798Z,12.24
2023-04-23T20:18:51.336Z,12.23
2023-04-23T20:20:53.019Z,12.25
2023-04-23T20:22:54.502Z,12.30
2023-04-23T20:24:56.841Z,12.33
2023-04-23T20:26:58.643Z,12.36
2023-04-23T20:29:00.593Z,12.32
2023-04-23T20:31:02.085Z,12.25
2023-04-23T20:33:03.646Z,12.27
2023-04-23T20:35:05.713Z,12.30
2023-04-23T20:37:08.768Z,12.33
2023-04-23T20:39:10.855Z,12.33
2023-04-23T20:41:12.696Z,12.34
2023-04-23T20:43:14.626Z,12.37
2023-04-23T20:45:16.473Z,12.38
2023-04-23T20:47:17.949Z,12.38
2023-04-23T20:49:19.758Z,12.36
2023-04-23T20:51:22.638Z,12.38
2023-04-23T20:53:24.529Z,12.41
2023-04-23T20:55:26.106Z,12.42
2023-04-23T20:57:27.580Z,12.44
2023-04-23T20:59:29.265Z,12.45
2023-04-23T21:01:30.933Z,12.47
2023-04-23T21:03:32.984Z,12.46
2023-04-23T21:05:34.685Z,12.45
2023-04-23T21:07:36.800Z,12.45
2023-04-23T21:09:38.251Z,12.44
2023-04-23T21:11:39.973Z,12.43
2023-04-23T21:13:42.562Z,12.42
2023-04-23T21:15:44.581Z,12.40
2023-04-23T21:17:46.292Z,12.40
2023-04-23T21:19:47.788Z,12.36
2023-04-23T21:21:49.294Z,12.32
2023-04-23T21:23:50.792Z,12.31
2023-04-23T21:25:52.376Z,12.32
2023-04-23T21:27:58.170Z,12.32
2023-04-23T21:30:04.674Z,12.31
2023-04-23T21:32:06.236Z,12.27
2023-04-23T21:34:09.253Z,12.22
2023-04-23T21:36:10.735Z,12.20
2023-04-23T21:38:12.387Z,12.19
2023-04-23T21:40:13.868Z,12.21
2023-04-23T21:42:15.559Z,12.22
2023-04-23T21:44:17.076Z,12.23
2023-04-23T21:46:18.653Z,12.23
2023-04-23T21:48:20.118Z,12.23
2023-04-23T21:50:22.098Z,12.23
2023-04-23T21:52:23.928Z,12.22
2023-04-23T21:54:25.453Z,12.22
2023-04-23T21:56:26.944Z,12.21
2023-04-23T21:58:31.172Z,12.21
2023-04-23T22:00:32.693Z,12.16
2023-04-23T22:02:34.338Z,12.12
2023-04-23T22:04:36.508Z,12.09
2023-04-23T22:06:38.444Z,12.08
2023-04-23T22:08:40.480Z,12.07
2023-04-23T22:10:43.261Z,12.03
2023-04-23T22:12:46.379Z,12.02
2023-04-23T22:14:47.850Z,11.98
2023-04-23T22:16:51.172Z,11.94
2023-04-23T22:18:53.591Z,11.92
2023-04-23T22:20:55.086Z,11.91
2023-04-23T22:22:56.713Z,11.90
2023-04-23T22:24:58.265Z,11.90
2023-04-23T22:26:59.811Z,11.87
2023-04-23T22:29:01.323Z,11.84
2023-04-23T22:31:03.031Z,11.81
2023-04-23T22:33:05.245Z,11.80
2023-04-23T22:35:07.909Z,11.79
2023-04-23T22:37:09.627Z,11.76
2023-04-23T22:39:12.481Z,11.74
2023-04-23T22:41:13.972Z,11.70
2023-04-23T22:43:15.456Z,11.71
2023-04-23T22:45:16.974Z,11.68
2023-04-23T22:47:18.558Z,11.69
2023-04-23T22:49:20.196Z,11.67
2023-04-23T22:51:21.682Z,11.64
2023-04-23T22:53:23.136Z,11.64
2023-04-23T22:55:24.606Z,11.63
2023-04-23T22:57:26.146Z,11.62
2023-04-23T22:59:27.648Z,11.61
2023-04-23T23:01:29.132Z,11.60
2023-04-23T23:03:30.754Z,11.59
2023-04-23T23:05:32.288Z,11.59
2023-04-23T23:07:33.908Z,11.56
2023-04-23T23:09:35.459Z,11.52
2023-04-23T23:11:37.088Z,11.48
2023-04-23T23:13:40.585Z,11.49
2023-04-23T23:15:42.140Z,11.46
2023-04-23T23:17:43.652Z,11.46
2023-04-23T23:19:45.336Z,11.48
2023-04-23T23:21:46.948Z,11.47
2023-04-23T23:23:48.603Z,11.47
2023-04-23T23:25:50.244Z,11.45
2023-04-23T23:27:51.672Z,11.44
2023-04-23T23:29:53.201Z,11.45
2023-04-23T23:31:57.109Z,11.45
2023-04-23T23:33:58.620Z,11.44
2023-04-23T23:36:00.116Z,11.44
2023-04-23T23:38:01.595Z,11.44
2023-04-23T23:40:05.546Z,11.45
2023-04-23T23:42:07.022Z,11.46
2023-04-23T23:44:08.466Z,11.47
2023-04-23T23:46:10.555Z,11.48
2023-04-23T23:48:12.399Z,11.49
2023-04-23T23:50:13.923Z,11.50
2023-04-23T23:52:15.468Z,11.51
2023-04-23T23:54:16.924Z,11.53
2023-04-23T23:56:18.497Z,11.53
2023-04-23T23:58:20.946Z,11.53
